sensor_id;sensor_type;location;lat;lon;timestamp;P1;durP1;ratioP1;P2;durP2;ratioP2
8777;SDS011;4425;50.872;4.712;2023-08-06T00:01:00;0.20;;;0.20;;
8777;SDS011;4425;50.872;4.712;2023-08-06T00:03:27;0.30;;;0.30;;
8777;SDS011;4425;50.872;4.712;2023-08-06T00:05:53;0.20;;;0.20;;
8777;SDS011;4425;50.872;4.712;2023-08-06T00:08:22;0.20;;;0.20;;
8777;SDS011;4425;50.872;4.712;2023-08-06T00:10:49;0.10;;;0.10;;
8777;SDS011;4425;50.872;4.712;2023-08-06T00:13:15;0.20;;;0.20;;
8777;SDS011;4425;50.872;4.712;2023-08-06T00:15:42;0.20;;;0.20;;
8777;SDS011;4425;50.872;4.712;2023-08-06T00:18:09;0.20;;;0.20;;
8777;SDS011;4425;50.872;4.712;2023-08-06T00:20:38;0.23;;;0.23;;
8777;SDS011;4425;50.872;4.712;2023-08-06T00:23:06;0.20;;;0.20;;
8777;SDS011;4425;50.872;4.712;2023-08-06T00:25:34;0.38;;;0.38;;
8777;SDS011;4425;50.872;4.712;2023-08-06T00:28:01;0.20;;;0.20;;
8777;SDS011;4425;50.872;4.712;2023-08-06T00:30:28;0.20;;;0.20;;
8777;SDS011;4425;50.872;4.712;2023-08-06T00:32:55;0.20;;;0.20;;
8777;SDS011;4425;50.872;4.712;2023-08-06T00:35:22;0.20;;;0.20;;
8777;SDS011;4425;50.872;4.712;2023-08-06T00:37:49;0.20;;;0.20;;
8777;SDS011;4425;50.872;4.712;2023-08-06T00:40:16;0.20;;;0.20;;
8777;SDS011;4425;50.872;4.712;2023-08-06T00:42:48;0.20;;;0.20;;
8777;SDS011;4425;50.872;4.712;2023-08-06T00:45:15;0.20;;;0.20;;
8777;SDS011;4425;50.872;4.712;2023-08-06T00:47:42;0.20;;;0.20;;
8777;SDS011;4425;50.872;4.712;2023-08-06T00:50:09;0.20;;;0.20;;
8777;SDS011;4425;50.872;4.712;2023-08-06T00:52:36;0.20;;;0.20;;
8777;SDS011;4425;50.872;4.712;2023-08-06T00:55:03;0.20;;;0.20;;
8777;SDS011;4425;50.872;4.712;2023-08-06T00:57:31;0.20;;;0.20;;
8777;SDS011;4425;50.872;4.712;2023-08-06T01:00:00;0.20;;;0.20;;
8777;SDS011;4425;50.872;4.712;2023-08-06T01:02:27;0.20;;;0.20;;
8777;SDS011;4425;50.872;4.712;2023-08-06T01:04:54;0.20;;;0.20;;
8777;SDS011;4425;50.872;4.712;2023-08-06T01:07:25;0.20;;;0.20;;
8777;SDS011;4425;50.872;4.712;2023-08-06T01:10:08;0.20;;;0.20;;
8777;SDS011;4425;50.872;4.712;2023-08-06T01:12:47;0.20;;;0.20;;
8777;SDS011;4425;50.872;4.712;2023-08-06T01:15:20;0.20;;;0.20;;
8777;SDS011;4425;50.872;4.712;2023-08-06T01:17:50;0.20;;;0.20;;
8777;SDS011;4425;50.872;4.712;2023-08-06T01:20:18;0.20;;;0.20;;
8777;SDS011;4425;50.872;4.712;2023-08-06T01:22:46;0.28;;;0.28;;
8777;SDS011;4425;50.872;4.712;2023-08-06T01:25:13;0.20;;;0.20;;
8777;SDS011;4425;50.872;4.712;2023-08-06T01:27:43;0.20;;;0.20;;
8777;SDS011;4425;50.872;4.712;2023-08-06T01:30:15;0.20;;;0.20;;
8777;SDS011;4425;50.872;4.712;2023-08-06T01:32:46;0.20;;;0.20;;
8777;SDS011;4425;50.872;4.712;2023-08-06T01:35:16;0.20;;;0.20;;
8777;SDS011;4425;50.872;4.712;2023-08-06T01:37:47;0.20;;;0.20;;
8777;SDS011;4425;50.872;4.712;2023-08-06T01:40:15;0.20;;;0.20;;
8777;SDS011;4425;50.872;4.712;2023-08-06T01:42:42;0.20;;;0.20;;
8777;SDS011;4425;50.872;4.712;2023-08-06T01:45:09;0.20;;;0.20;;
8777;SDS011;4425;50.872;4.712;2023-08-06T01:47:37;0.20;;;0.20;;
8777;SDS011;4425;50.872;4.712;2023-08-06T01:50:04;0.20;;;0.20;;
8777;SDS011;4425;50.872;4.712;2023-08-06T01:52:32;0.20;;;0.20;;
8777;SDS011;4425;50.872;4.712;2023-08-06T01:55:00;0.20;;;0.20;;
8777;SDS011;4425;50.872;4.712;2023-08-06T01:57:27;0.20;;;0.20;;
8777;SDS011;4425;50.872;4.712;2023-08-06T01:59:54;0.20;;;0.20;;
8777;SDS011;4425;50.872;4.712;2023-08-06T02:02:21;0.20;;;0.20;;
8777;SDS011;4425;50.872;4.712;2023-08-06T02:04:48;0.20;;;0.20;;
8777;SDS011;4425;50.872;4.712;2023-08-06T02:07:15;0.20;;;0.20;;
8777;SDS011;4425;50.872;4.712;2023-08-06T02:09:42;0.20;;;0.20;;
8777;SDS011;4425;50.872;4.712;2023-08-06T02:12:10;0.20;;;0.20;;
8777;SDS011;4425;50.872;4.712;2023-08-06T02:14:37;0.20;;;0.20;;
8777;SDS011;4425;50.872;4.712;2023-08-06T02:17:04;0.20;;;0.20;;
8777;SDS011;4425;50.872;4.712;2023-08-06T02:19:31;0.20;;;0.20;;
8777;SDS011;4425;50.872;4.712;2023-08-06T02:21:58;0.20;;;0.20;;
8777;SDS011;4425;50.872;4.712;2023-08-06T02:24:25;0.20;;;0.20;;
8777;SDS011;4425;50.872;4.712;2023-08-06T02:26:52;0.20;;;0.20;;
8777;SDS011;4425;50.872;4.712;2023-08-06T02:29:22;0.20;;;0.20;;
8777;SDS011;4425;50.872;4.712;2023-08-06T02:31:49;0.20;;;0.20;;
8777;SDS011;4425;50.872;4.712;2023-08-06T02:34:16;0.20;;;0.20;;
8777;SDS011;4425;50.872;4.712;2023-08-06T02:36:43;0.20;;;0.20;;
8777;SDS011;4425;50.872;4.712;2023-08-06T02:39:10;0.20;;;0.20;;
8777;SDS011;4425;50.872;4.712;2023-08-06T02:41:36;0.20;;;0.20;;
8777;SDS011;4425;50.872;4.712;2023-08-06T02:44:03;0.30;;;0.30;;
8777;SDS011;4425;50.872;4.712;2023-08-06T02:46:32;0.30;;;0.30;;
8777;SDS011;4425;50.872;4.712;2023-08-06T02:48:59;0.30;;;0.30;;
8777;SDS011;4425;50.872;4.712;2023-08-06T02:51:25;0.40;;;0.40;;
8777;SDS011;4425;50.872;4.712;2023-08-06T02:53:52;0.38;;;0.38;;
8777;SDS011;4425;50.872;4.712;2023-08-06T02:56:19;0.30;;;0.30;;
8777;SDS011;4425;50.872;4.712;2023-08-06T02:58:46;0.40;;;0.40;;
8777;SDS011;4425;50.872;4.712;2023-08-06T03:01:13;0.28;;;0.28;;
8777;SDS011;4425;50.872;4.712;2023-08-06T03:03:42;0.20;;;0.20;;
8777;SDS011;4425;50.872;4.712;2023-08-06T03:06:08;0.20;;;0.20;;
8777;SDS011;4425;50.872;4.712;2023-08-06T03:08:35;0.30;;;0.30;;
8777;SDS011;4425;50.872;4.712;2023-08-06T03:11:02;0.33;;;0.33;;
8777;SDS011;4425;50.872;4.712;2023-08-06T03:13:29;0.30;;;0.30;;
8777;SDS011;4425;50.872;4.712;2023-08-06T03:15:57;0.20;;;0.20;;
8777;SDS011;4425;50.872;4.712;2023-08-06T03:18:25;0.20;;;0.20;;
8777;SDS011;4425;50.872;4.712;2023-08-06T03:20:53;0.30;;;0.30;;
8777;SDS011;4425;50.872;4.712;2023-08-06T03:23:22;0.22;;;0.22;;
8777;SDS011;4425;50.872;4.712;2023-08-06T03:25:48;0.30;;;0.30;;
8777;SDS011;4425;50.872;4.712;2023-08-06T03:28:15;0.35;;;0.35;;
8777;SDS011;4425;50.872;4.712;2023-08-06T03:30:42;0.30;;;0.30;;
8777;SDS011;4425;50.872;4.712;2023-08-06T03:33:09;0.30;;;0.30;;
8777;SDS011;4425;50.872;4.712;2023-08-06T03:35:36;0.55;;;0.55;;
8777;SDS011;4425;50.872;4.712;2023-08-06T03:38:05;0.47;;;0.47;;
8777;SDS011;4425;50.872;4.712;2023-08-06T03:40:32;0.35;;;0.35;;
8777;SDS011;4425;50.872;4.712;2023-08-06T03:43:01;0.40;;;0.40;;
8777;SDS011;4425;50.872;4.712;2023-08-06T03:45:28;0.30;;;0.30;;
8777;SDS011;4425;50.872;4.712;2023-08-06T03:47:55;0.30;;;0.30;;
8777;SDS011;4425;50.872;4.712;2023-08-06T03:50:22;0.20;;;0.20;;
8777;SDS011;4425;50.872;4.712;2023-08-06T03:52:49;0.80;;;0.80;;
8777;SDS011;4425;50.872;4.712;2023-08-06T03:55:17;0.50;;;0.50;;
8777;SDS011;4425;50.872;4.712;2023-08-06T03:57:44;0.20;;;0.20;;
8777;SDS011;4425;50.872;4.712;2023-08-06T04:00:11;0.30;;;0.30;;
8777;SDS011;4425;50.872;4.712;2023-08-06T04:02:38;7.67;;;6.30;;
8777;SDS011;4425;50.872;4.712;2023-08-06T04:05:05;10.80;;;7.18;;
8777;SDS011;4425;50.872;4.712;2023-08-06T04:07:33;9.87;;;8.10;;
8777;SDS011;4425;50.872;4.712;2023-08-06T04:10:00;9.07;;;8.00;;
8777;SDS011;4425;50.872;4.712;2023-08-06T04:12:30;10.00;;;8.77;;
8777;SDS011;4425;50.872;4.712;2023-08-06T04:14:58;9.90;;;8.90;;
8777;SDS011;4425;50.872;4.712;2023-08-06T04:17:25;14.70;;;9.45;;
8777;SDS011;4425;50.872;4.712;2023-08-06T04:19:52;13.23;;;9.63;;
8777;SDS011;4425;50.872;4.712;2023-08-06T04:22:20;14.35;;;9.63;;
8777;SDS011;4425;50.872;4.712;2023-08-06T04:24:47;16.10;;;11.03;;
8777;SDS011;4425;50.872;4.712;2023-08-06T04:27:15;14.50;;;11.07;;
8777;SDS011;4425;50.872;4.712;2023-08-06T04:29:44;12.95;;;11.38;;
8777;SDS011;4425;50.872;4.712;2023-08-06T04:32:12;13.35;;;10.50;;
8777;SDS011;4425;50.872;4.712;2023-08-06T04:34:39;13.57;;;10.73;;
8777;SDS011;4425;50.872;4.712;2023-08-06T04:37:06;10.55;;;9.25;;
8777;SDS011;4425;50.872;4.712;2023-08-06T04:39:32;9.52;;;8.52;;
8777;SDS011;4425;50.872;4.712;2023-08-06T04:41:59;8.00;;;7.20;;
8777;SDS011;4425;50.872;4.712;2023-08-06T04:44:26;6.22;;;5.70;;
8777;SDS011;4425;50.872;4.712;2023-08-06T04:46:54;4.67;;;4.27;;
8777;SDS011;4425;50.872;4.712;2023-08-06T04:49:21;2.58;;;2.47;;
8777;SDS011;4425;50.872;4.712;2023-08-06T04:51:49;2.13;;;2.03;;
8777;SDS011;4425;50.872;4.712;2023-08-06T04:54:16;2.00;;;1.90;;
8777;SDS011;4425;50.872;4.712;2023-08-06T04:56:42;1.73;;;1.63;;
8777;SDS011;4425;50.872;4.712;2023-08-06T04:59:09;1.97;;;1.40;;
8777;SDS011;4425;50.872;4.712;2023-08-06T05:01:36;2.17;;;1.60;;
8777;SDS011;4425;50.872;4.712;2023-08-06T05:04:04;1.60;;;1.50;;
8777;SDS011;4425;50.872;4.712;2023-08-06T05:06:31;2.45;;;1.42;;
8777;SDS011;4425;50.872;4.712;2023-08-06T05:08:58;2.53;;;1.60;;
8777;SDS011;4425;50.872;4.712;2023-08-06T05:11:25;2.33;;;2.13;;
8777;SDS011;4425;50.872;4.712;2023-08-06T05:13:52;3.53;;;2.80;;
8777;SDS011;4425;50.872;4.712;2023-08-06T05:16:19;3.53;;;3.22;;
8777;SDS011;4425;50.872;4.712;2023-08-06T05:18:46;4.70;;;4.30;;
8777;SDS011;4425;50.872;4.712;2023-08-06T05:21:14;6.23;;;4.60;;
8777;SDS011;4425;50.872;4.712;2023-08-06T05:23:41;5.45;;;4.90;;
8777;SDS011;4425;50.872;4.712;2023-08-06T05:26:08;5.47;;;4.90;;
8777;SDS011;4425;50.872;4.712;2023-08-06T05:28:35;7.85;;;5.07;;
8777;SDS011;4425;50.872;4.712;2023-08-06T05:31:03;6.88;;;5.35;;
8777;SDS011;4425;50.872;4.712;2023-08-06T05:33:30;11.15;;;5.25;;
8777;SDS011;4425;50.872;4.712;2023-08-06T05:35:57;9.20;;;5.50;;
8777;SDS011;4425;50.872;4.712;2023-08-06T05:38:26;8.38;;;5.18;;
8777;SDS011;4425;50.872;4.712;2023-08-06T05:40:53;5.20;;;4.30;;
8777;SDS011;4425;50.872;4.712;2023-08-06T05:43:20;5.78;;;4.47;;
8777;SDS011;4425;50.872;4.712;2023-08-06T05:45:48;5.22;;;4.05;;
8777;SDS011;4425;50.872;4.712;2023-08-06T05:48:16;4.60;;;3.72;;
8777;SDS011;4425;50.872;4.712;2023-08-06T05:50:43;6.65;;;4.05;;
8777;SDS011;4425;50.872;4.712;2023-08-06T05:53:10;5.10;;;3.72;;
8777;SDS011;4425;50.872;4.712;2023-08-06T05:55:38;6.13;;;3.50;;
8777;SDS011;4425;50.872;4.712;2023-08-06T05:58:05;8.55;;;3.85;;
8777;SDS011;4425;50.872;4.712;2023-08-06T06:00:32;5.28;;;3.55;;
8777;SDS011;4425;50.872;4.712;2023-08-06T06:03:00;6.22;;;3.20;;
8777;SDS011;4425;50.872;4.712;2023-08-06T06:05:27;6.43;;;3.23;;
8777;SDS011;4425;50.872;4.712;2023-08-06T06:07:54;3.23;;;2.83;;
8777;SDS011;4425;50.872;4.712;2023-08-06T06:10:21;3.85;;;3.30;;
8777;SDS011;4425;50.872;4.712;2023-08-06T06:12:49;5.10;;;3.13;;
8777;SDS011;4425;50.872;4.712;2023-08-06T06:15:16;5.30;;;3.27;;
8777;SDS011;4425;50.872;4.712;2023-08-06T06:17:43;7.68;;;3.72;;
8777;SDS011;4425;50.872;4.712;2023-08-06T06:20:10;6.25;;;3.50;;
8777;SDS011;4425;50.872;4.712;2023-08-06T06:22:37;8.82;;;3.40;;
8777;SDS011;4425;50.872;4.712;2023-08-06T06:25:04;7.55;;;3.35;;
8777;SDS011;4425;50.872;4.712;2023-08-06T06:27:32;8.13;;;3.30;;
8777;SDS011;4425;50.872;4.712;2023-08-06T06:30:00;5.05;;;3.20;;
8777;SDS011;4425;50.872;4.712;2023-08-06T06:32:27;7.30;;;3.40;;
8777;SDS011;4425;50.872;4.712;2023-08-06T06:34:54;9.13;;;3.53;;
8777;SDS011;4425;50.872;4.712;2023-08-06T06:37:21;7.45;;;3.03;;
8777;SDS011;4425;50.872;4.712;2023-08-06T06:39:48;8.88;;;3.80;;
8777;SDS011;4425;50.872;4.712;2023-08-06T06:42:16;5.47;;;3.00;;
8777;SDS011;4425;50.872;4.712;2023-08-06T06:44:43;7.00;;;3.40;;
8777;SDS011;4425;50.872;4.712;2023-08-06T06:47:11;6.03;;;3.28;;
8777;SDS011;4425;50.872;4.712;2023-08-06T06:49:38;6.85;;;3.17;;
8777;SDS011;4425;50.872;4.712;2023-08-06T06:52:05;7.05;;;3.20;;
8777;SDS011;4425;50.872;4.712;2023-08-06T06:54:32;6.80;;;3.70;;
8777;SDS011;4425;50.872;4.712;2023-08-06T06:56:59;8.30;;;3.75;;
8777;SDS011;4425;50.872;4.712;2023-08-06T06:59:26;8.02;;;3.50;;
8777;SDS011;4425;50.872;4.712;2023-08-06T07:01:53;6.57;;;3.35;;
8777;SDS011;4425;50.872;4.712;2023-08-06T07:04:22;8.13;;;3.55;;
8777;SDS011;4425;50.872;4.712;2023-08-06T07:06:49;8.57;;;3.72;;
8777;SDS011;4425;50.872;4.712;2023-08-06T07:09:17;6.93;;;3.85;;
8777;SDS011;4425;50.872;4.712;2023-08-06T07:11:44;7.80;;;3.58;;
8777;SDS011;4425;50.872;4.712;2023-08-06T07:14:11;8.07;;;3.90;;
8777;SDS011;4425;50.872;4.712;2023-08-06T07:16:39;9.82;;;3.30;;
8777;SDS011;4425;50.872;4.712;2023-08-06T07:19:06;8.52;;;3.53;;
8777;SDS011;4425;50.872;4.712;2023-08-06T07:21:34;5.57;;;3.73;;
8777;SDS011;4425;50.872;4.712;2023-08-06T07:24:01;7.72;;;4.03;;
8777;SDS011;4425;50.872;4.712;2023-08-06T07:26:29;10.15;;;4.07;;
8777;SDS011;4425;50.872;4.712;2023-08-06T07:28:55;11.68;;;3.55;;
8777;SDS011;4425;50.872;4.712;2023-08-06T07:31:22;9.07;;;4.38;;
8777;SDS011;4425;50.872;4.712;2023-08-06T07:33:50;7.73;;;3.70;;
8777;SDS011;4425;50.872;4.712;2023-08-06T07:36:17;9.20;;;3.75;;
8777;SDS011;4425;50.872;4.712;2023-08-06T07:38:46;7.40;;;3.58;;
8777;SDS011;4425;50.872;4.712;2023-08-06T07:41:16;2.10;;;0.90;;
8777;SDS011;4425;50.872;4.712;2023-08-06T07:43:44;6.70;;;2.90;;
8777;SDS011;4425;50.872;4.712;2023-08-06T07:46:11;7.30;;;3.40;;
8777;SDS011;4425;50.872;4.712;2023-08-06T07:48:38;8.75;;;3.92;;
8777;SDS011;4425;50.872;4.712;2023-08-06T07:51:05;5.13;;;2.30;;
8777;SDS011;4425;50.872;4.712;2023-08-06T07:53:32;7.78;;;3.20;;
8777;SDS011;4425;50.872;4.712;2023-08-06T07:56:01;12.40;;;2.83;;
8777;SDS011;4425;50.872;4.712;2023-08-06T07:58:28;5.88;;;2.40;;
8777;SDS011;4425;50.872;4.712;2023-08-06T09:05:12;5.13;;;2.07;;
8777;SDS011;4425;50.872;4.712;2023-08-06T09:07:41;5.38;;;2.03;;
8777;SDS011;4425;50.872;4.712;2023-08-06T09:10:11;5.97;;;1.92;;
8777;SDS011;4425;50.872;4.712;2023-08-06T09:12:41;3.63;;;2.20;;
8777;SDS011;4425;50.872;4.712;2023-08-06T09:15:09;4.97;;;1.98;;
8777;SDS011;4425;50.872;4.712;2023-08-06T09:17:37;6.10;;;2.25;;
8777;SDS011;4425;50.872;4.712;2023-08-06T09:20:12;6.78;;;2.25;;
8777;SDS011;4425;50.872;4.712;2023-08-06T09:22:40;7.73;;;1.90;;
8777;SDS011;4425;50.872;4.712;2023-08-06T09:25:07;8.55;;;2.55;;
8777;SDS011;4425;50.872;4.712;2023-08-06T09:27:36;8.32;;;2.35;;
8777;SDS011;4425;50.872;4.712;2023-08-06T09:30:03;7.43;;;2.40;;
8777;SDS011;4425;50.872;4.712;2023-08-06T09:32:44;6.97;;;2.30;;
8777;SDS011;4425;50.872;4.712;2023-08-06T09:35:17;9.98;;;2.20;;
8777;SDS011;4425;50.872;4.712;2023-08-06T09:37:45;6.10;;;2.40;;
8777;SDS011;4425;50.872;4.712;2023-08-06T09:40:25;7.57;;;2.33;;
8777;SDS011;4425;50.872;4.712;2023-08-06T09:42:53;7.07;;;2.00;;
8777;SDS011;4425;50.872;4.712;2023-08-06T09:45:20;7.53;;;2.20;;
8777;SDS011;4425;50.872;4.712;2023-08-06T09:47:48;0.40;;;0.40;;
8777;SDS011;4425;50.872;4.712;2023-08-06T09:50:17;1.10;;;1.10;;
8777;SDS011;4425;50.872;4.712;2023-08-06T09:52:45;1.30;;;1.20;;
8777;SDS011;4425;50.872;4.712;2023-08-06T09:55:13;4.27;;;2.00;;
8777;SDS011;4425;50.872;4.712;2023-08-06T09:57:41;6.40;;;2.20;;
8777;SDS011;4425;50.872;4.712;2023-08-06T10:00:09;0.80;;;0.80;;
8777;SDS011;4425;50.872;4.712;2023-08-06T10:02:38;0.57;;;0.57;;
8777;SDS011;4425;50.872;4.712;2023-08-06T10:05:05;6.63;;;2.25;;
8777;SDS011;4425;50.872;4.712;2023-08-06T10:07:35;3.28;;;1.63;;
8777;SDS011;4425;50.872;4.712;2023-08-06T10:10:04;3.97;;;1.70;;
8777;SDS011;4425;50.872;4.712;2023-08-06T10:12:34;3.28;;;1.80;;
8777;SDS011;4425;50.872;4.712;2023-08-06T10:15:07;4.32;;;1.80;;
8777;SDS011;4425;50.872;4.712;2023-08-06T10:17:36;4.38;;;1.92;;
8777;SDS011;4425;50.872;4.712;2023-08-06T10:20:04;3.13;;;1.80;;
8777;SDS011;4425;50.872;4.712;2023-08-06T10:22:34;6.07;;;2.05;;
8777;SDS011;4425;50.872;4.712;2023-08-06T10:25:02;4.37;;;2.10;;
8777;SDS011;4425;50.872;4.712;2023-08-06T10:27:31;4.70;;;2.00;;
8777;SDS011;4425;50.872;4.712;2023-08-06T10:32:49;7.43;;;2.30;;
8777;SDS011;4425;50.872;4.712;2023-08-06T10:35:36;5.75;;;2.40;;
8777;SDS011;4425;50.872;4.712;2023-08-06T10:38:05;6.93;;;2.43;;
8777;SDS011;4425;50.872;4.712;2023-08-06T10:40:35;4.50;;;2.10;;
8777;SDS011;4425;50.872;4.712;2023-08-06T10:43:02;5.15;;;1.90;;
8777;SDS011;4425;50.872;4.712;2023-08-06T10:45:33;6.63;;;2.45;;
8777;SDS011;4425;50.872;4.712;2023-08-06T10:48:01;7.05;;;2.60;;
8777;SDS011;4425;50.872;4.712;2023-08-06T10:50:29;6.50;;;2.10;;
8777;SDS011;4425;50.872;4.712;2023-08-06T10:52:56;1.83;;;1.02;;
8777;SDS011;4425;50.872;4.712;2023-08-06T10:55:26;5.85;;;2.70;;
8777;SDS011;4425;50.872;4.712;2023-08-06T10:57:54;6.47;;;2.30;;
8777;SDS011;4425;50.872;4.712;2023-08-06T11:00:22;5.68;;;2.05;;
8777;SDS011;4425;50.872;4.712;2023-08-06T11:02:50;6.57;;;2.10;;
8777;SDS011;4425;50.872;4.712;2023-08-06T11:05:18;5.75;;;2.05;;
8777;SDS011;4425;50.872;4.712;2023-08-06T11:07:45;6.28;;;2.30;;
8777;SDS011;4425;50.872;4.712;2023-08-06T11:10:13;5.03;;;2.05;;
8777;SDS011;4425;50.872;4.712;2023-08-06T11:12:41;5.18;;;2.00;;
8777;SDS011;4425;50.872;4.712;2023-08-06T11:15:09;11.60;;;2.55;;
8777;SDS011;4425;50.872;4.712;2023-08-06T11:17:36;7.00;;;2.33;;
8777;SDS011;4425;50.872;4.712;2023-08-06T11:20:06;6.18;;;2.00;;
8777;SDS011;4425;50.872;4.712;2023-08-06T11:22:33;5.22;;;2.10;;
8777;SDS011;4425;50.872;4.712;2023-08-06T11:25:02;7.25;;;2.10;;
8777;SDS011;4425;50.872;4.712;2023-08-06T11:27:30;4.50;;;1.92;;
8777;SDS011;4425;50.872;4.712;2023-08-06T11:29:58;6.20;;;2.30;;
8777;SDS011;4425;50.872;4.712;2023-08-06T11:32:26;5.23;;;2.40;;
8777;SDS011;4425;50.872;4.712;2023-08-06T11:34:53;6.47;;;2.47;;
8777;SDS011;4425;50.872;4.712;2023-08-06T11:37:21;4.63;;;2.15;;
8777;SDS011;4425;50.872;4.712;2023-08-06T11:39:50;6.15;;;2.30;;
8777;SDS011;4425;50.872;4.712;2023-08-06T11:42:17;5.72;;;2.30;;
8777;SDS011;4425;50.872;4.712;2023-08-06T11:44:44;4.95;;;2.25;;
8777;SDS011;4425;50.872;4.712;2023-08-06T11:47:14;4.70;;;2.10;;
8777;SDS011;4425;50.872;4.712;2023-08-06T11:49:42;5.05;;;2.10;;
8777;SDS011;4425;50.872;4.712;2023-08-06T11:52:12;6.00;;;2.17;;
8777;SDS011;4425;50.872;4.712;2023-08-06T11:54:40;5.55;;;2.13;;
8777;SDS011;4425;50.872;4.712;2023-08-06T11:57:07;3.83;;;1.83;;
8777;SDS011;4425;50.872;4.712;2023-08-06T11:59:35;3.28;;;1.75;;
8777;SDS011;4425;50.872;4.712;2023-08-06T12:02:04;3.80;;;1.75;;
8777;SDS011;4425;50.872;4.712;2023-08-06T12:07:30;5.38;;;1.95;;
8777;SDS011;4425;50.872;4.712;2023-08-06T12:09:58;3.65;;;2.00;;
8777;SDS011;4425;50.872;4.712;2023-08-06T12:12:25;3.83;;;1.90;;
8777;SDS011;4425;50.872;4.712;2023-08-06T12:14:53;6.07;;;2.03;;
8777;SDS011;4425;50.872;4.712;2023-08-06T12:17:21;5.23;;;2.10;;
8777;SDS011;4425;50.872;4.712;2023-08-06T12:19:48;6.30;;;1.80;;
8777;SDS011;4425;50.872;4.712;2023-08-06T12:22:17;4.05;;;1.30;;
8777;SDS011;4425;50.872;4.712;2023-08-06T12:24:44;5.93;;;2.17;;
8777;SDS011;4425;50.872;4.712;2023-08-06T12:27:12;6.10;;;2.10;;
8777;SDS011;4425;50.872;4.712;2023-08-06T12:29:40;8.48;;;2.20;;
8777;SDS011;4425;50.872;4.712;2023-08-06T12:32:08;4.57;;;2.03;;
8777;SDS011;4425;50.872;4.712;2023-08-06T12:34:35;3.95;;;2.13;;
8777;SDS011;4425;50.872;4.712;2023-08-06T12:37:02;5.63;;;2.40;;
8777;SDS011;4425;50.872;4.712;2023-08-06T12:39:31;2.38;;;1.42;;
8777;SDS011;4425;50.872;4.712;2023-08-06T12:41:58;0.80;;;0.60;;
8777;SDS011;4425;50.872;4.712;2023-08-06T12:44:25;5.25;;;1.02;;
8777;SDS011;4425;50.872;4.712;2023-08-06T12:46:52;0.70;;;0.70;;
8777;SDS011;4425;50.872;4.712;2023-08-06T12:49:20;6.32;;;0.82;;
8777;SDS011;4425;50.872;4.712;2023-08-06T12:51:47;0.30;;;0.30;;
8777;SDS011;4425;50.872;4.712;2023-08-06T12:54:15;0.80;;;0.80;;
8777;SDS011;4425;50.872;4.712;2023-08-06T12:56:44;5.13;;;1.03;;
8777;SDS011;4425;50.872;4.712;2023-08-06T12:59:13;1.40;;;0.68;;
8777;SDS011;4425;50.872;4.712;2023-08-06T13:01:41;0.63;;;0.45;;
8777;SDS011;4425;50.872;4.712;2023-08-06T13:04:08;1.40;;;0.80;;
8777;SDS011;4425;50.872;4.712;2023-08-06T13:06:35;4.00;;;1.00;;
8777;SDS011;4425;50.872;4.712;2023-08-06T13:09:04;6.80;;;2.40;;
8777;SDS011;4425;50.872;4.712;2023-08-06T13:11:32;5.80;;;2.30;;
8777;SDS011;4425;50.872;4.712;2023-08-06T13:14:03;7.45;;;2.17;;
8777;SDS011;4425;50.872;4.712;2023-08-06T13:16:31;7.72;;;2.58;;
8777;SDS011;4425;50.872;4.712;2023-08-06T13:18:58;6.10;;;2.10;;
8777;SDS011;4425;50.872;4.712;2023-08-06T13:21:32;7.03;;;2.03;;
8777;SDS011;4425;50.872;4.712;2023-08-06T13:24:00;6.13;;;1.97;;
8777;SDS011;4425;50.872;4.712;2023-08-06T13:26:28;7.88;;;2.13;;
8777;SDS011;4425;50.872;4.712;2023-08-06T13:28:56;0.65;;;0.65;;
8777;SDS011;4425;50.872;4.712;2023-08-06T13:31:28;2.30;;;0.80;;
8777;SDS011;4425;50.872;4.712;2023-08-06T13:33:55;0.50;;;0.50;;
8777;SDS011;4425;50.872;4.712;2023-08-06T13:36:23;3.23;;;0.90;;
8777;SDS011;4425;50.872;4.712;2023-08-06T13:38:51;2.10;;;1.00;;
8777;SDS011;4425;50.872;4.712;2023-08-06T13:41:18;0.60;;;0.60;;
8777;SDS011;4425;50.872;4.712;2023-08-06T13:43:45;0.73;;;0.73;;
8777;SDS011;4425;50.872;4.712;2023-08-06T13:46:13;1.10;;;0.70;;
8777;SDS011;4425;50.872;4.712;2023-08-06T13:48:41;1.50;;;0.68;;
8777;SDS011;4425;50.872;4.712;2023-08-06T13:51:08;0.77;;;0.52;;
8777;SDS011;4425;50.872;4.712;2023-08-06T13:53:35;3.30;;;0.50;;
8777;SDS011;4425;50.872;4.712;2023-08-06T13:56:03;0.60;;;0.60;;
8777;SDS011;4425;50.872;4.712;2023-08-06T13:58:30;1.35;;;0.90;;
8777;SDS011;4425;50.872;4.712;2023-08-06T14:00:57;0.63;;;0.63;;
8777;SDS011;4425;50.872;4.712;2023-08-06T14:03:26;0.52;;;0.52;;
8777;SDS011;4425;50.872;4.712;2023-08-06T14:05:53;2.63;;;0.93;;
8777;SDS011;4425;50.872;4.712;2023-08-06T14:08:21;0.50;;;0.50;;
8777;SDS011;4425;50.872;4.712;2023-08-06T14:10:49;1.30;;;0.73;;
8777;SDS011;4425;50.872;4.712;2023-08-06T14:13:20;2.50;;;0.60;;
8777;SDS011;4425;50.872;4.712;2023-08-06T14:15:48;3.08;;;1.00;;
8777;SDS011;4425;50.872;4.712;2023-08-06T14:18:15;6.05;;;2.30;;
8777;SDS011;4425;50.872;4.712;2023-08-06T14:20:44;0.57;;;0.57;;
8777;SDS011;4425;50.872;4.712;2023-08-06T14:23:15;6.30;;;0.80;;
8777;SDS011;4425;50.872;4.712;2023-08-06T14:25:43;4.47;;;1.08;;
8777;SDS011;4425;50.872;4.712;2023-08-06T14:28:10;0.63;;;0.63;;
8777;SDS011;4425;50.872;4.712;2023-08-06T14:30:37;0.60;;;0.50;;
8777;SDS011;4425;50.872;4.712;2023-08-06T14:33:04;5.00;;;1.83;;
8777;SDS011;4425;50.872;4.712;2023-08-06T14:35:31;0.30;;;0.30;;
8777;SDS011;4425;50.872;4.712;2023-08-06T14:37:59;10.10;;;2.42;;
8777;SDS011;4425;50.872;4.712;2023-08-06T14:40:26;8.18;;;2.78;;
8777;SDS011;4425;50.872;4.712;2023-08-06T14:42:58;8.18;;;2.70;;
8777;SDS011;4425;50.872;4.712;2023-08-06T14:45:28;7.63;;;2.67;;
8777;SDS011;4425;50.872;4.712;2023-08-06T14:47:58;7.20;;;2.58;;
8777;SDS011;4425;50.872;4.712;2023-08-06T14:50:25;4.13;;;2.03;;
8777;SDS011;4425;50.872;4.712;2023-08-06T14:52:51;8.98;;;2.80;;
8777;SDS011;4425;50.872;4.712;2023-08-06T14:55:24;10.27;;;2.83;;
8777;SDS011;4425;50.872;4.712;2023-08-06T14:57:51;9.35;;;3.05;;
8777;SDS011;4425;50.872;4.712;2023-08-06T15:00:19;7.90;;;2.95;;
8777;SDS011;4425;50.872;4.712;2023-08-06T15:02:46;7.05;;;3.00;;
8777;SDS011;4425;50.872;4.712;2023-08-06T15:05:14;7.43;;;2.78;;
8777;SDS011;4425;50.872;4.712;2023-08-06T15:07:41;7.88;;;2.63;;
8777;SDS011;4425;50.872;4.712;2023-08-06T15:10:08;8.38;;;3.10;;
8777;SDS011;4425;50.872;4.712;2023-08-06T15:12:37;8.57;;;2.95;;
8777;SDS011;4425;50.872;4.712;2023-08-06T15:15:06;9.15;;;2.97;;
8777;SDS011;4425;50.872;4.712;2023-08-06T15:17:34;7.10;;;2.50;;
8777;SDS011;4425;50.872;4.712;2023-08-06T15:20:01;4.65;;;2.28;;
8777;SDS011;4425;50.872;4.712;2023-08-06T15:22:30;5.82;;;2.42;;
8777;SDS011;4425;50.872;4.712;2023-08-06T15:24:58;6.10;;;2.40;;
8777;SDS011;4425;50.872;4.712;2023-08-06T15:27:25;6.82;;;2.47;;
8777;SDS011;4425;50.872;4.712;2023-08-06T15:29:54;7.03;;;2.53;;
8777;SDS011;4425;50.872;4.712;2023-08-06T15:32:21;6.95;;;2.30;;
8777;SDS011;4425;50.872;4.712;2023-08-06T15:34:49;6.55;;;2.50;;
8777;SDS011;4425;50.872;4.712;2023-08-06T15:37:17;6.32;;;2.45;;
8777;SDS011;4425;50.872;4.712;2023-08-06T15:39:44;5.40;;;2.13;;
8777;SDS011;4425;50.872;4.712;2023-08-06T15:42:12;5.65;;;1.80;;
8777;SDS011;4425;50.872;4.712;2023-08-06T15:44:40;6.82;;;2.35;;
8777;SDS011;4425;50.872;4.712;2023-08-06T15:47:10;4.28;;;1.98;;
8777;SDS011;4425;50.872;4.712;2023-08-06T15:49:43;7.18;;;2.20;;
8777;SDS011;4425;50.872;4.712;2023-08-06T15:52:10;6.60;;;2.00;;
8777;SDS011;4425;50.872;4.712;2023-08-06T15:54:37;7.32;;;2.10;;
8777;SDS011;4425;50.872;4.712;2023-08-06T15:57:05;4.77;;;1.83;;
8777;SDS011;4425;50.872;4.712;2023-08-06T15:59:32;5.95;;;2.25;;
8777;SDS011;4425;50.872;4.712;2023-08-06T16:01:59;6.72;;;2.28;;
8777;SDS011;4425;50.872;4.712;2023-08-06T16:04:29;4.40;;;2.00;;
8777;SDS011;4425;50.872;4.712;2023-08-06T16:06:57;4.67;;;1.90;;
8777;SDS011;4425;50.872;4.712;2023-08-06T16:09:25;3.25;;;1.73;;
8777;SDS011;4425;50.872;4.712;2023-08-06T16:11:52;4.85;;;2.08;;
8777;SDS011;4425;50.872;4.712;2023-08-06T16:14:20;5.20;;;1.90;;
8777;SDS011;4425;50.872;4.712;2023-08-06T16:16:47;5.57;;;1.90;;
8777;SDS011;4425;50.872;4.712;2023-08-06T16:19:14;6.75;;;2.35;;
8777;SDS011;4425;50.872;4.712;2023-08-06T16:21:49;6.25;;;2.35;;
8777;SDS011;4425;50.872;4.712;2023-08-06T16:24:16;7.95;;;2.40;;
8777;SDS011;4425;50.872;4.712;2023-08-06T16:26:46;5.65;;;2.28;;
8777;SDS011;4425;50.872;4.712;2023-08-06T16:29:13;7.40;;;2.20;;